Terminal Aerodrome Forecast
Issued by NWS Wakefield, VA

Home | Current Version | Previous Version | Text Only | Print | Product List | Glossary On
Versions: 1 2 3 4 5 6 7 8 9 10 11 12 13 14 15 16 17 18 19 20 21 22
000
FTUS41 KAKQ 050905 AAA
TAFSBY
TAF AMD
KSBY 050905Z 0509/0606 02003KT 4SM BR SCT003 OVC015
      TEMPO 0509/0513 1SM BR OVC003
     FM051400 06004KT 5SM BR BKN020
     FM051600 10006KT P6SM BKN050
     FM060000 09003KT 5SM BR OVC100=

USA.gov is the U.S. government's official web portal to all federal, state and local government web resources and services.